createdAt,value
2022-11-06T00:01:59.353Z,97679.28
2022-11-06T00:04:30.094Z,97682.63
2022-11-06T00:06:57.337Z,97685.25
2022-11-06T00:09:24.705Z,97691.38
2022-11-06T00:11:53.034Z,97688.06
2022-11-06T00:14:20.213Z,97696.31
2022-11-06T00:16:48.271Z,97696.59
2022-11-06T00:19:16.621Z,97695.38
2022-11-06T00:21:44.604Z,97698.50
2022-11-06T00:24:14.237Z,97692.91
2022-11-06T00:26:42.565Z,97696.47
2022-11-06T00:29:14.993Z,97691.16
2022-11-06T00:31:42.741Z,97704.91
2022-11-06T00:34:10.787Z,97712.09
2022-11-06T00:36:38.530Z,97708.72
2022-11-06T00:39:05.884Z,97710.19
2022-11-06T00:41:33.140Z,97707.63
2022-11-06T00:44:02.607Z,97705.97
2022-11-06T00:46:30.470Z,97707.13
2022-11-06T00:48:57.947Z,97704.25
2022-11-06T00:51:35.767Z,97706.28
2022-11-06T00:54:06.213Z,97706.34
2022-11-06T00:56:34.292Z,97709.38
2022-11-06T00:59:06.028Z,97701.78
2022-11-06T01:01:39.959Z,97705.00
2022-11-06T01:04:17.961Z,97705.16
2022-11-06T01:06:53.134Z,97708.00
2022-11-06T01:09:26.449Z,97705.94
2022-11-06T01:12:12.928Z,97703.06
2022-11-06T01:14:41.903Z,97711.91
2022-11-06T01:17:09.195Z,97709.69
2022-11-06T01:19:36.716Z,97707.47
2022-11-06T01:22:04.025Z,97702.97
2022-11-06T01:24:31.883Z,97708.34
2022-11-06T01:27:24.955Z,97710.72
2022-11-06T01:29:46.423Z,97706.91
2022-11-06T01:32:13.984Z,97710.72
2022-11-06T01:34:41.163Z,97702.53
2022-11-06T01:37:13.243Z,97703.47
2022-11-06T01:39:41.957Z,97702.28
2022-11-06T01:42:13.207Z,97706.59
2022-11-06T01:44:43.367Z,97703.97
2022-11-06T01:47:28.609Z,97700.88
2022-11-06T01:50:05.692Z,97695.72
2022-11-06T01:52:34.637Z,97694.66
2022-11-06T01:55:25.973Z,97690.50
2022-11-06T01:57:54.229Z,97689.53
2022-11-06T02:00:21.704Z,97693.53
2022-11-06T02:02:50.272Z,97682.38
2022-11-06T02:05:17.947Z,97686.75
2022-11-06T02:07:45.944Z,97694.34
2022-11-06T02:10:13.152Z,97690.19
2022-11-06T02:13:23.066Z,97698.56
2022-11-06T05:13:48.332Z,97753.25
2022-11-06T05:16:15.549Z,97752.53
2022-11-06T05:18:42.780Z,97752.53
2022-11-06T05:21:29.357Z,97760.97
2022-11-06T05:23:56.554Z,97764.88
2022-11-06T05:26:23.922Z,97765.50
2022-11-06T05:28:51.219Z,97767.91
2022-11-06T05:31:18.382Z,97767.91
2022-11-06T05:33:45.574Z,97767.63
2022-11-06T05:36:12.983Z,97770.47
2022-11-06T05:38:40.312Z,97759.88
2022-11-06T05:41:07.605Z,97759.34
2022-11-06T05:43:35.043Z,97760.47
2022-11-06T05:46:02.360Z,97769.00
2022-11-06T05:48:29.966Z,97770.81
2022-11-06T05:51:03.273Z,97772.97
2022-11-06T05:53:36.035Z,97779.19
2022-11-06T05:56:05.032Z,97780.81
2022-11-06T05:58:32.406Z,97790.19
2022-11-06T06:01:00.083Z,97789.69
2022-11-06T06:03:27.745Z,97788.31
2022-11-06T06:05:55.070Z,97793.63
2022-11-06T06:08:22.349Z,97797.25
2022-11-06T06:10:50.079Z,97784.34
2022-11-06T06:13:17.673Z,97785.56
2022-11-06T06:15:45.316Z,97790.75
2022-11-06T06:18:13.115Z,97795.56
2022-11-06T06:20:40.677Z,97787.47
2022-11-06T06:23:09.591Z,97785.16
2022-11-06T06:25:36.995Z,97771.72
2022-11-06T06:28:04.309Z,97776.41
2022-11-06T06:30:32.133Z,97768.78
2022-11-06T06:33:05.841Z,97769.47
2022-11-06T06:35:34.070Z,97777.94
2022-11-06T06:38:01.337Z,97773.09
2022-11-06T06:40:29.847Z,97782.22
2022-11-06T06:42:58.824Z,97784.66
2022-11-06T06:45:26.863Z,97783.19
2022-11-06T07:02:37.690Z,97779.00
2022-11-06T07:05:05.349Z,97775.69
2022-11-06T07:07:34.964Z,97788.59
2022-11-06T07:10:02.192Z,97779.31
2022-11-06T07:12:29.513Z,97777.97
2022-11-06T07:14:56.710Z,97785.38
2022-11-06T07:17:23.981Z,97781.56
2022-11-06T07:19:51.284Z,97772.59
2022-11-06T07:22:25.258Z,97780.25
2022-11-06T07:24:56.919Z,97783.28
2022-11-06T07:27:24.316Z,97788.47
2022-11-06T07:29:51.678Z,97784.09
2022-11-06T07:32:19.135Z,97778.47
2022-11-06T07:34:46.597Z,97781.31
2022-11-06T07:37:13.803Z,97782.34
2022-11-06T07:39:41.020Z,97778.06
2022-11-06T07:42:08.567Z,97783.00
2022-11-06T07:44:38.028Z,97776.06
2022-11-06T07:47:06.633Z,97777.81
2022-11-06T07:49:33.887Z,97780.03
2022-11-06T07:52:01.208Z,97778.78
2022-11-06T07:54:28.711Z,97773.44
2022-11-06T07:56:56.703Z,97773.59
2022-11-06T07:59:24.249Z,97775.03
2022-11-06T08:01:51.865Z,97778.31
2022-11-06T08:04:19.291Z,97780.94
2022-11-06T08:06:46.731Z,97775.75
2022-11-06T08:09:14.035Z,97779.00
2022-11-06T08:11:41.384Z,97781.88
2022-11-06T08:14:08.646Z,97781.47
2022-11-06T08:16:35.910Z,97784.91
2022-11-06T08:19:03.392Z,97777.47
2022-11-06T08:21:30.692Z,97779.00
2022-11-06T08:23:58.349Z,97781.25
2022-11-06T08:26:26.372Z,97780.41
2022-11-06T08:28:54.713Z,97778.59
2022-11-06T08:31:21.994Z,97773.50
2022-11-06T08:33:49.410Z,97772.16
2022-11-06T08:36:16.941Z,97769.06
2022-11-06T08:38:47.389Z,97763.84
2022-11-06T08:41:15.157Z,97761.19
2022-11-06T08:43:42.607Z,97762.25
2022-11-06T08:46:10.921Z,97763.88
2022-11-06T08:48:38.438Z,97758.59
2022-11-06T08:51:06.526Z,97766.00
2022-11-06T08:53:34.205Z,97767.28
2022-11-06T08:56:04.800Z,97769.53
2022-11-06T08:58:32.177Z,97779.00
2022-11-06T09:00:59.822Z,97770.72
2022-11-06T09:03:27.101Z,97769.34
2022-11-06T09:05:54.370Z,97770.53
2022-11-06T09:08:21.725Z,97770.88
2022-11-06T09:10:50.452Z,97776.66
2022-11-06T09:13:19.588Z,97775.00
2022-11-06T09:15:47.100Z,97778.44
2022-11-06T09:18:14.343Z,97776.75
2022-11-06T09:20:41.670Z,97781.59
2022-11-06T09:23:09.960Z,97776.97
2022-11-06T09:25:37.191Z,97778.78
2022-11-06T09:28:04.902Z,97777.84
2022-11-06T09:30:32.787Z,97781.09
2022-11-06T09:33:02.728Z,97777.94
2022-11-06T09:35:34.187Z,97770.81
2022-11-06T09:38:07.168Z,97774.34
2022-11-06T09:40:50.901Z,97777.84
2022-11-06T09:46:32.206Z,97772.19
2022-11-06T09:49:22.875Z,97767.94
2022-11-06T09:52:02.563Z,97767.88
2022-11-06T09:54:42.699Z,97765.66
2022-11-06T09:57:33.636Z,97773.34
2022-11-06T10:00:03.128Z,97764.28
2022-11-06T10:02:48.994Z,97756.72
2022-11-06T10:05:31.312Z,97763.75
2022-11-06T10:08:17.821Z,97757.47
2022-11-06T10:11:17.412Z,97761.53
2022-11-06T10:14:47.611Z,97762.44
2022-11-06T10:17:35.961Z,97751.88
2022-11-06T10:20:29.612Z,97752.81
2022-11-06T10:23:05.830Z,97746.84
2022-11-06T10:26:16.059Z,97740.34
2022-11-06T10:28:52.872Z,97730.03
2022-11-06T10:32:25.358Z,97731.81
2022-11-06T10:35:07.044Z,97719.47
2022-11-06T10:38:07.876Z,97722.91
2022-11-06T10:40:35.511Z,97728.78
2022-11-06T10:43:35.609Z,97718.91
2022-11-06T10:46:42.117Z,97716.81
2022-11-06T10:49:50.094Z,97717.25
2022-11-06T10:52:52.682Z,97708.47
2022-11-06T10:55:54.676Z,97704.66
2022-11-06T10:58:27.949Z,97698.13
2022-11-06T11:01:02.986Z,97696.63
2022-11-06T11:03:43.082Z,97698.66
2022-11-06T11:06:10.530Z,97686.50
2022-11-06T11:08:44.111Z,97686.94
2022-11-06T11:11:14.265Z,97693.81
2022-11-06T11:14:01.659Z,97681.72
2022-11-06T11:16:41.025Z,97683.91
2022-11-06T11:19:26.680Z,97680.03
2022-11-06T11:22:05.970Z,97670.22
2022-11-06T11:24:33.402Z,97673.34
2022-11-06T11:27:05.452Z,97678.03
2022-11-06T11:29:48.271Z,97673.75
2022-11-06T11:32:18.237Z,97661.06
2022-11-06T11:34:56.866Z,97662.19
2022-11-06T11:37:33.301Z,97662.97
2022-11-06T11:40:38.049Z,97668.84
2022-11-06T11:43:24.540Z,97659.41
2022-11-06T11:46:09.649Z,97657.84
2022-11-06T11:48:52.826Z,97654.81
2022-11-06T11:51:40.624Z,97654.41
2022-11-06T11:54:13.855Z,97650.97
2022-11-06T11:57:19.103Z,97652.78
2022-11-06T11:59:53.130Z,97646.78
2022-11-06T12:02:42.728Z,97650.44
2022-11-06T12:05:28.259Z,97643.53
2022-11-06T12:07:58.365Z,97646.66
2022-11-06T12:10:43.325Z,97643.03
2022-11-06T12:13:13.310Z,97637.44
2022-11-06T12:16:10.787Z,97640.06
2022-11-06T12:18:47.953Z,97635.41
2022-11-06T12:21:34.362Z,97633.00
2022-11-06T12:24:11.304Z,97635.25
2022-11-06T12:27:14.345Z,97634.81
2022-11-06T12:29:48.375Z,97635.81
2022-11-06T12:32:34.201Z,97638.81
2022-11-06T12:35:13.812Z,97640.66
2022-11-06T12:38:11.041Z,97639.66
2022-11-06T12:40:40.560Z,97630.88
2022-11-06T12:43:39.127Z,97627.03
2022-11-06T12:46:27.937Z,97621.22
2022-11-06T12:49:28.170Z,97624.25
2022-11-06T12:52:36.393Z,97631.59
2022-11-06T12:55:33.437Z,97626.75
2022-11-06T12:58:42.365Z,97629.59
2022-11-06T13:02:18.678Z,97620.47
2022-11-06T13:05:20.195Z,97615.38
2022-11-06T13:07:56.132Z,97607.97
2022-11-06T13:11:16.385Z,97607.44
2022-11-06T13:14:07.685Z,97605.03
2022-11-06T13:16:48.587Z,97605.38
2022-11-06T13:19:31.370Z,97602.78
2022-11-06T13:22:39.971Z,97600.78
2022-11-06T13:25:46.465Z,97600.22
2022-11-06T13:28:16.763Z,97589.97
2022-11-06T13:30:45.621Z,97588.88
2022-11-06T13:33:30.479Z,97597.38
2022-11-06T13:36:00.331Z,97590.44
2022-11-06T13:38:41.776Z,97591.75
2022-11-06T13:41:27.623Z,97584.31
2022-11-06T13:44:16.699Z,97587.47
2022-11-06T13:47:03.502Z,97586.28
2022-11-06T13:50:19.737Z,97586.59
2022-11-06T13:52:59.418Z,97575.41
2022-11-06T13:56:29.816Z,97566.97
2022-11-06T13:59:34.296Z,97566.56
2022-11-06T14:02:22.693Z,97553.19
2022-11-06T14:05:45.598Z,97560.28
2022-11-06T14:08:49.921Z,97548.50
2022-11-06T14:11:21.685Z,97552.72
2022-11-06T14:14:04.420Z,97547.03
2022-11-06T14:16:37.572Z,97550.31
2022-11-06T14:19:12.157Z,97546.72
2022-11-06T14:21:50.914Z,97550.16
2022-11-06T14:24:33.665Z,97550.19
2022-11-06T14:27:26.536Z,97553.84
2022-11-06T14:30:07.121Z,97554.25
2022-11-06T14:32:41.318Z,97550.31
2022-11-06T14:35:31.101Z,97552.19
2022-11-06T14:38:10.954Z,97553.91
2022-11-06T14:40:39.753Z,97554.25
2022-11-06T14:43:35.915Z,97539.53
2022-11-06T14:46:22.805Z,97543.34
2022-11-06T14:48:54.368Z,97544.84
2022-11-06T14:51:29.565Z,97533.25
2022-11-06T14:54:07.314Z,97536.91
2022-11-06T14:56:39.459Z,97532.47
2022-11-06T14:59:30.198Z,97541.41
2022-11-06T15:02:26.866Z,97535.63
2022-11-06T15:05:19.488Z,97532.03
2022-11-06T15:08:04.398Z,97522.59
2022-11-06T15:10:44.061Z,97524.50
2022-11-06T15:13:18.160Z,97528.56
2022-11-06T15:15:50.388Z,97519.97
2022-11-06T15:18:25.250Z,97513.78
2022-11-06T15:21:01.996Z,97512.81
2022-11-06T15:23:53.655Z,97508.47
2022-11-06T15:26:33.767Z,97500.91
2022-11-06T15:29:00.999Z,97504.81
2022-11-06T15:31:30.954Z,97502.75
2022-11-06T15:34:04.307Z,97500.91
2022-11-06T15:36:40.253Z,97507.03
2022-11-06T15:40:04.093Z,97495.31
2022-11-06T15:42:41.124Z,97498.56
2022-11-06T15:45:12.984Z,97494.16
2022-11-06T15:47:40.213Z,97497.00
2022-11-06T15:50:23.787Z,97500.81
2022-11-06T15:52:51.377Z,97505.28
2022-11-06T15:55:33.141Z,97498.03
2022-11-06T15:58:17.311Z,97499.75
2022-11-06T16:00:46.079Z,97503.63
2022-11-06T16:03:18.279Z,97505.41
2022-11-06T16:05:47.359Z,97500.84
2022-11-06T16:08:17.724Z,97491.66
2022-11-06T16:10:50.133Z,97494.09
2022-11-06T16:13:22.978Z,97492.31
2022-11-06T16:15:53.683Z,97490.19
2022-11-06T16:18:38.385Z,97495.69
2022-11-06T16:21:08.583Z,97490.22
2022-11-06T16:23:45.491Z,97492.09
2022-11-06T16:26:26.423Z,97490.34
2022-11-06T16:28:56.435Z,97487.22
2022-11-06T16:31:27.751Z,97495.13
2022-11-06T16:34:04.995Z,97493.44
2022-11-06T16:36:52.471Z,97491.88
2022-11-06T16:39:40.068Z,97485.94
2022-11-06T16:42:22.140Z,97479.38
2022-11-06T16:44:59.289Z,97482.88
2022-11-06T16:47:26.863Z,97474.34
2022-11-06T16:49:58.701Z,97482.50
2022-11-06T16:52:28.249Z,97472.28
2022-11-06T16:55:10.265Z,97468.09
2022-11-06T16:57:50.203Z,97474.69
2022-11-06T17:00:20.510Z,97469.41
2022-11-06T17:03:04.689Z,97460.19
2022-11-06T17:05:37.914Z,97462.31
2022-11-06T17:08:27.505Z,97462.44
2022-11-06T17:10:59.718Z,97470.28
2022-11-06T17:13:31.560Z,97469.75
2022-11-06T17:16:05.079Z,97461.91
2022-11-06T17:18:38.897Z,97466.66
2022-11-06T17:21:15.833Z,97452.91
2022-11-06T17:23:43.615Z,97453.28
2022-11-06T17:26:28.398Z,97452.28
2022-11-06T17:28:57.554Z,97459.91
2022-11-06T17:31:26.228Z,97457.22
2022-11-06T17:33:54.651Z,97462.72
2022-11-06T17:36:28.034Z,97455.53
2022-11-06T17:38:57.870Z,97449.25
2022-11-06T17:41:32.761Z,97456.44
2022-11-06T17:44:04.262Z,97450.34
2022-11-06T17:46:35.273Z,97455.94
2022-11-06T17:49:03.830Z,97448.00
2022-11-06T17:51:50.129Z,97443.22
2022-11-06T17:54:26.901Z,97445.16
2022-11-06T17:56:55.985Z,97436.72
2022-11-06T17:59:26.570Z,97438.31
2022-11-06T18:01:55.448Z,97433.88
2022-11-06T18:04:25.794Z,97429.06
2022-11-06T18:06:54.764Z,97424.31
2022-11-06T18:09:23.421Z,97428.19
2022-11-06T18:11:53.910Z,97426.81
2022-11-06T18:14:23.181Z,97424.63
2022-11-06T18:16:51.170Z,97430.69
2022-11-06T18:19:23.548Z,97434.91
2022-11-06T18:21:51.655Z,97429.56
2022-11-06T18:24:19.098Z,97431.50
2022-11-06T18:26:46.477Z,97417.00
2022-11-06T18:29:14.659Z,97414.69
2022-11-06T18:31:42.571Z,97422.31
2022-11-06T18:34:20.319Z,97416.56
2022-11-06T18:36:50.605Z,97422.38
2022-11-06T18:39:18.524Z,97416.03
2022-11-06T18:41:45.906Z,97415.50
2022-11-06T18:44:15.815Z,97415.75
2022-11-06T18:46:43.076Z,97420.88
2022-11-06T18:49:11.779Z,97418.78
2022-11-06T18:51:40.549Z,97412.19
2022-11-06T18:54:12.153Z,97420.81
2022-11-06T18:56:39.816Z,97410.75
2022-11-06T18:59:13.447Z,97418.97
2022-11-06T19:01:40.948Z,97412.84
2022-11-06T19:04:10.686Z,97412.56
2022-11-06T19:06:40.299Z,97414.38
2022-11-06T19:09:09.480Z,97414.13
2022-11-06T19:11:37.279Z,97410.50
2022-11-06T19:14:04.617Z,97405.00
2022-11-06T19:16:32.181Z,97401.63
2022-11-06T19:19:05.580Z,97407.66
2022-11-06T19:21:34.283Z,97407.41
2022-11-06T19:24:04.673Z,97403.72
2022-11-06T19:26:35.844Z,97399.03
2022-11-06T19:29:08.805Z,97397.22
2022-11-06T19:31:37.954Z,97398.03
2022-11-06T19:34:08.852Z,97406.44
2022-11-06T19:36:36.829Z,97406.16
2022-11-06T19:39:05.141Z,97409.38
2022-11-06T19:41:33.028Z,97413.09
2022-11-06T19:44:00.481Z,97409.91
2022-11-06T19:46:33.990Z,97409.19
2022-11-06T19:49:05.686Z,97408.97
2022-11-06T19:51:34.765Z,97401.31
2022-11-06T19:54:02.705Z,97405.53
2022-11-06T19:56:30.250Z,97412.38
2022-11-06T19:58:58.335Z,97406.00
2022-11-06T20:01:26.100Z,97405.72
2022-11-06T20:03:54.158Z,97404.75
2022-11-06T20:06:23.323Z,97408.47
2022-11-06T20:08:51.549Z,97412.13
2022-11-06T20:11:19.774Z,97414.53
2022-11-06T20:13:47.545Z,97407.63
2022-11-06T20:16:20.469Z,97412.16
2022-11-06T20:18:54.835Z,97410.78
2022-11-06T20:21:27.252Z,97413.38
2022-11-06T20:23:57.758Z,97410.25
2022-11-06T20:26:26.237Z,97409.22
2022-11-06T20:28:53.832Z,97403.41
2022-11-06T20:31:21.909Z,97404.47
2022-11-06T20:33:50.561Z,97401.84
2022-11-06T20:36:28.553Z,97400.47
2022-11-06T20:38:59.554Z,97393.31
2022-11-06T20:41:29.151Z,97387.97
2022-11-06T20:43:57.116Z,97392.13
2022-11-06T20:46:25.467Z,97387.34
2022-11-06T20:48:53.241Z,97392.88
2022-11-06T20:51:24.993Z,97388.38
2022-11-06T20:53:52.996Z,97391.78
2022-11-06T20:56:25.212Z,97397.06
2022-11-06T20:58:57.230Z,97388.06
2022-11-06T21:01:30.103Z,97388.31
2022-11-06T21:03:59.712Z,97383.31
2022-11-06T21:06:29.328Z,97394.97
2022-11-06T21:08:57.213Z,97392.78
2022-11-06T21:11:27.462Z,97394.09
2022-11-06T21:13:55.790Z,97396.19
2022-11-06T21:16:30.663Z,97391.13
2022-11-06T21:19:00.237Z,97394.03
2022-11-06T21:21:33.155Z,97391.47
2022-11-06T21:24:02.390Z,97383.81
2022-11-06T21:26:37.050Z,97389.22
2022-11-06T21:29:11.050Z,97386.75
2022-11-06T21:31:45.738Z,97378.34
2022-11-06T21:34:17.565Z,97382.56
2022-11-06T21:36:45.772Z,97375.94
2022-11-06T21:39:17.751Z,97373.03
2022-11-06T21:41:46.298Z,97370.41
2022-11-06T21:44:17.560Z,97364.63
2022-11-06T21:46:46.102Z,97368.06
2022-11-06T21:49:14.410Z,97354.50
2022-11-06T21:51:42.022Z,97360.25
2022-11-06T21:54:30.750Z,97350.81
2022-11-06T21:56:58.353Z,97352.25
2022-11-06T21:59:28.793Z,97345.53
2022-11-06T22:01:56.654Z,97340.63
2022-11-06T22:04:24.309Z,97337.41
2022-11-06T22:06:52.610Z,97333.97
2022-11-06T22:09:24.807Z,97329.63
2022-11-06T22:11:52.892Z,97336.06
2022-11-06T22:14:20.200Z,97330.41
2022-11-06T22:16:48.110Z,97336.41
2022-11-06T22:19:17.818Z,97334.78
2022-11-06T22:21:45.553Z,97328.38
2022-11-06T22:24:14.505Z,97331.38
2022-11-06T22:26:41.974Z,97329.69
2022-11-06T22:29:12.944Z,97333.34
2022-11-06T22:31:40.843Z,97338.75
2022-11-06T22:34:10.400Z,97339.25
2022-11-06T22:36:38.584Z,97340.19
2022-11-06T22:39:09.278Z,97339.06
2022-11-06T22:41:37.344Z,97334.00
2022-11-06T22:44:05.300Z,97334.59
2022-11-06T22:46:33.094Z,97344.94
2022-11-06T22:49:00.708Z,97344.88
2022-11-06T22:51:31.109Z,97349.47
2022-11-06T22:53:58.912Z,97346.81
2022-11-06T22:56:28.147Z,97337.69
2022-11-06T22:59:04.285Z,97343.81
2022-11-06T23:01:37.263Z,97347.09
2022-11-06T23:04:15.046Z,97340.59
2022-11-06T23:06:44.514Z,97351.63
2022-11-06T23:09:12.881Z,97343.28
2022-11-06T23:11:40.261Z,97346.44
2022-11-06T23:14:09.132Z,97340.47
2022-11-06T23:16:55.931Z,97345.91
2022-11-06T23:19:23.826Z,97339.19
2022-11-06T23:22:13.911Z,97333.44
2022-11-06T23:24:41.180Z,97332.63
2022-11-06T23:27:10.590Z,97337.94
2022-11-06T23:29:37.943Z,97338.91
2022-11-06T23:32:05.842Z,97344.16
2022-11-06T23:34:33.183Z,97345.28
2022-11-06T23:37:00.485Z,97343.72
2022-11-06T23:39:27.701Z,97338.25
2022-11-06T23:41:55.017Z,97338.69
2022-11-06T23:44:41.325Z,97330.00
2022-11-06T23:47:08.465Z,97333.53
2022-11-06T23:49:35.673Z,97329.97
2022-11-06T23:52:02.994Z,97339.44
2022-11-06T23:54:30.243Z,97339.41
2022-11-06T23:56:57.601Z,97334.47
2022-11-06T23:59:24.884Z,97338.50
